Time;durP1;ratioP1;P1;durP2;ratioP2;P2;SDS_P1;SDS_P2;PMS_P1;PMS_P2;Temp;Humidity;BMP_temperature;BMP_pressure;BME280_temperature;BME280_humidity;BME280_pressure;Samples;Min_cycle;Max_cycle;Signal;HPM_P1;HPM_P2
2022/03/20 00:00:41;;;;;;;19.43;10.73;;;2.30;99.50;;;;;;5037717;28;20737;-66
2022/03/20 00:03:12;;;;;;;23.30;12.47;;;2.20;99.50;;;;;;5040601;28;20459;-65
2022/03/20 00:05:39;;;;;;;28.30;12.40;;;2.20;99.50;;;;;;5037249;28;20452;-66
2022/03/20 00:08:14;;;;;;;27.10;12.00;;;2.20;99.70;;;;;;5038554;28;20430;-66
2022/03/20 00:10:43;;;;;;;22.87;12.10;;;2.20;99.80;;;;;;5034827;28;20440;-66
2022/03/20 00:13:09;;;;;;;27.03;13.43;;;2.10;99.70;;;;;;5034710;28;20455;-67
2022/03/20 00:15:40;;;;;;;33.43;13.47;;;2.10;99.80;;;;;;5033028;28;20951;-66
2022/03/20 00:18:06;;;;;;;28.67;13.43;;;2.10;99.80;;;;;;5035843;28;20424;-66
2022/03/20 00:20:37;;;;;;;28.77;12.40;;;2.10;99.80;;;;;;5031455;28;20436;-68
2022/03/20 00:23:07;;;;;;;26.17;11.97;;;2.10;99.90;;;;;;5031216;28;20447;-67
2022/03/20 00:25:37;;;;;;;33.53;13.53;;;2.10;99.50;;;;;;5044776;28;20841;-66
2022/03/20 00:28:05;;;;;;;29.97;13.57;;;2.10;99.60;;;;;;5043782;28;20890;-67
2022/03/20 00:30:31;;;;;;;26.40;12.53;;;2.10;99.70;;;;;;5043021;28;20447;-67
2022/03/20 00:32:56;;;;;;;22.57;12.10;;;2.10;99.90;;;;;;5047204;28;20487;-67
2022/03/20 00:35:23;;;;;;;34.07;14.37;;;2.10;99.70;;;;;;5046125;28;21185;-67
2022/03/20 00:37:48;;;;;;;22.53;11.03;;;2.00;99.70;;;;;;5046747;28;20208;-67
2022/03/20 00:40:14;;;;;;;26.20;12.43;;;2.10;99.70;;;;;;5045517;28;20462;-66
2022/03/20 00:42:40;;;;;;;26.70;11.90;;;2.00;99.90;;;;;;5044292;28;20185;-67
2022/03/20 00:45:06;;;;;;;27.00;13.90;;;2.00;99.90;;;;;;5046912;28;20202;-67
2022/03/20 00:47:32;;;;;;;23.50;12.20;;;2.00;99.80;;;;;;5043599;28;20487;-66
2022/03/20 00:49:57;;;;;;;35.70;13.33;;;2.00;99.70;;;;;;5045316;28;20970;-68
2022/03/20 00:52:23;;;;;;;35.70;14.83;;;2.00;99.60;;;;;;5042601;28;20189;-67
2022/03/20 00:54:49;;;;;;;34.20;14.30;;;2.00;99.70;;;;;;5042366;28;20261;-64
2022/03/20 00:57:15;;;;;;;35.87;13.03;;;2.00;99.60;;;;;;5041166;28;20252;-67
2022/03/20 00:59:41;;;;;;;27.77;13.93;;;2.00;99.60;;;;;;5043758;28;20244;-68
2022/03/20 01:02:08;;;;;;;25.50;11.43;;;2.00;99.70;;;;;;5039270;28;20179;-66
2022/03/20 01:04:35;;;;;;;37.80;12.47;;;1.90;99.70;;;;;;5043839;28;20436;-67
2022/03/20 01:07:02;;;;;;;28.50;12.40;;;1.90;99.80;;;;;;5038057;28;20446;-67
2022/03/20 01:09:31;;;;;;;21.87;11.33;;;1.90;99.60;;;;;;5035837;28;20428;-68
2022/03/20 01:11:58;;;;;;;23.67;12.33;;;1.90;99.80;;;;;;5033709;28;20916;-67
2022/03/20 01:14:25;;;;;;;21.10;10.10;;;1.90;99.90;;;;;;5037054;28;20419;-68
2022/03/20 01:16:51;;;;;;;22.40;10.97;;;1.90;99.80;;;;;;5028901;28;20511;-67
2022/03/20 01:19:17;;;;;;;29.43;10.50;;;1.80;99.80;;;;;;5047734;28;20593;-68
2022/03/20 01:21:43;;;;;;;26.80;11.57;;;1.80;99.60;;;;;;5047634;28;20427;-68
2022/03/20 01:24:09;;;;;;;23.63;11.43;;;1.70;99.90;;;;;;5047973;28;20189;-67
2022/03/20 01:26:36;;;;;;;22.37;10.57;;;1.70;99.70;;;;;;5021864;28;20471;-67
2022/03/20 01:29:02;;;;;;;24.03;10.93;;;1.70;99.80;;;;;;5038773;28;20555;-66
2022/03/20 01:31:28;;;;;;;31.63;11.30;;;1.70;99.60;;;;;;5040218;28;20422;-67
2022/03/20 01:33:55;;;;;;;30.73;11.70;;;1.70;99.70;;;;;;5041534;28;20408;-65
2022/03/20 01:36:21;;;;;;;24.50;10.67;;;1.60;99.30;;;;;;5040901;28;20420;-65
2022/03/20 01:38:47;;;;;;;22.90;10.33;;;1.60;99.50;;;;;;5026700;28;20797;-66
2022/03/20 01:41:13;;;;;;;24.27;11.43;;;1.60;99.50;;;;;;5039274;28;20687;-64
2022/03/20 01:43:57;;;;;;;31.23;11.13;;;1.60;99.70;;;;;;5044648;28;20959;-66
2022/03/20 01:46:23;;;;;;;28.17;11.37;;;1.60;99.90;;;;;;5026162;28;20468;-66
2022/03/20 01:48:50;;;;;;;21.53;11.27;;;1.60;99.60;;;;;;5040929;28;20421;-66
2022/03/20 01:51:16;;;;;;;23.63;11.20;;;1.50;99.90;;;;;;5042418;28;20431;-66
2022/03/20 01:53:43;;;;;;;20.10;10.70;;;1.60;99.80;;;;;;5038378;28;20419;-67
2022/03/20 01:56:09;;;;;;;24.00;11.80;;;1.50;99.90;;;;;;5041151;28;20440;-66
2022/03/20 01:58:35;;;;;;;22.07;10.50;;;1.50;99.90;;;;;;5038410;28;20471;-66
2022/03/20 02:01:02;;;;;;;25.93;10.90;;;1.50;99.70;;;;;;5036971;28;20432;-65
2022/03/20 02:03:29;;;;;;;21.23;10.53;;;1.50;99.70;;;;;;5034766;28;20194;-67
2022/03/20 02:05:55;;;;;;;26.47;11.17;;;1.50;99.80;;;;;;5038675;28;20456;-66
2022/03/20 02:08:25;;;;;;;19.53;10.67;;;1.50;99.60;;;;;;5036709;28;20489;-67
2022/03/20 02:10:55;;;;;;;23.50;10.73;;;1.50;99.60;;;;;;5043830;28;20515;-66
2022/03/20 02:13:22;;;;;;;21.60;11.00;;;1.50;99.60;;;;;;5046041;28;20413;-65
2022/03/20 02:15:51;;;;;;;18.90;9.27;;;1.50;99.50;;;;;;5041390;28;20430;-66
2022/03/20 02:18:18;;;;;;;24.70;11.07;;;1.50;99.50;;;;;;5044055;28;20417;-66
2022/03/20 02:20:48;;;;;;;22.67;10.90;;;1.50;99.20;;;;;;5045426;28;20444;-66
2022/03/20 02:23:14;;;;;;;20.73;9.93;;;1.50;99.40;;;;;;5044011;28;20424;-65
2022/03/20 02:25:50;;;;;;;20.50;10.10;;;1.50;99.50;;;;;;5045172;28;21194;-66
2022/03/20 02:28:17;;;;;;;25.20;10.33;;;1.40;99.50;;;;;;5040571;28;20416;-66
2022/03/20 02:30:42;;;;;;;22.23;9.67;;;1.50;99.60;;;;;;5039313;28;20555;-66
2022/03/20 02:33:09;;;;;;;24.10;10.90;;;1.40;99.60;;;;;;5041820;28;20947;-66
2022/03/20 02:35:36;;;;;;;24.37;12.60;;;1.40;99.70;;;;;;5039277;28;20943;-66
2022/03/20 02:38:03;;;;;;;18.03;10.17;;;1.50;99.50;;;;;;5041073;28;20455;-66
2022/03/20 02:40:28;;;;;;;25.77;10.20;;;1.50;99.10;;;;;;5037553;28;20742;-67
2022/03/20 02:42:54;;;;;;;21.20;10.47;;;1.50;99.10;;;;;;5039669;28;20412;-66
2022/03/20 02:45:29;;;;;;;19.90;9.10;;;1.50;98.70;;;;;;5041976;28;20561;-66
2022/03/20 02:47:56;;;;;;;16.07;9.33;;;1.50;98.30;;;;;;5035607;28;20180;-66
2022/03/20 02:50:24;;;;;;;20.70;11.30;;;1.50;98.60;;;;;;5033750;28;20428;-65
2022/03/20 02:53:22;;;;;;;32.50;11.87;;;1.50;98.70;;;;;;5032702;28;20423;-66
2022/03/20 02:55:48;;;;;;;27.50;11.93;;;1.50;98.70;;;;;;4996644;28;20548;-67
2022/03/20 02:58:16;;;;;;;25.73;12.03;;;1.60;98.70;;;;;;5039507;28;20886;-66
2022/03/20 03:00:43;;;;;;;24.83;11.97;;;1.50;99.00;;;;;;5034313;28;20548;-65
2022/03/20 03:03:13;;;;;;;18.20;9.13;;;1.50;99.10;;;;;;5045384;28;20478;-65
2022/03/20 03:05:40;;;;;;;26.87;12.00;;;1.50;99.30;;;;;;5036614;28;20559;-66
2022/03/20 03:10:55;;;;;;;25.53;12.83;;;1.40;99.80;;;;;;5043234;28;20478;-66
2022/03/20 03:13:34;;;;;;;18.83;10.30;;;1.40;99.80;;;;;;5042143;28;20477;-65
2022/03/20 03:16:02;;;;;;;18.97;9.87;;;1.40;99.40;;;;;;5041711;28;20790;-67
2022/03/20 03:18:29;;;;;;;22.73;10.27;;;1.50;99.50;;;;;;5041103;28;20428;-64
2022/03/20 03:20:55;;;;;;;20.90;9.90;;;1.60;99.40;;;;;;5041415;28;20444;-66
2022/03/20 03:23:20;;;;;;;23.30;9.70;;;1.60;99.20;;;;;;5040832;28;20471;-66
2022/03/20 03:25:47;;;;;;;22.80;9.57;;;1.70;99.00;;;;;;5041153;28;20999;-66
2022/03/20 03:28:12;;;;;;;22.83;10.07;;;1.70;99.20;;;;;;5019258;28;20676;-66
2022/03/20 03:30:43;;;;;;;21.27;10.67;;;1.60;99.00;;;;;;5036121;28;20440;-67
2022/03/20 03:33:09;;;;;;;19.27;9.83;;;1.60;98.80;;;;;;5035801;28;20264;-66
2022/03/20 03:35:47;;;;;;;21.77;10.90;;;1.60;98.90;;;;;;5036522;28;20416;-66
2022/03/20 03:38:18;;;;;;;23.10;10.33;;;1.60;99.10;;;;;;5034764;28;20424;-66
2022/03/20 03:40:45;;;;;;;23.47;10.00;;;1.70;99.10;;;;;;5031789;28;20445;-67
2022/03/20 03:43:12;;;;;;;23.77;12.07;;;1.70;99.00;;;;;;5039742;28;20431;-66
2022/03/20 03:45:39;;;;;;;24.03;10.20;;;1.70;99.40;;;;;;5037367;28;20461;-67
2022/03/20 03:48:06;;;;;;;20.73;10.97;;;1.60;99.60;;;;;;5038707;28;20542;-65
2022/03/20 03:50:32;;;;;;;23.33;10.17;;;1.60;99.70;;;;;;5034900;28;20494;-66
2022/03/20 03:52:58;;;;;;;23.30;10.63;;;1.60;99.90;;;;;;5037293;28;20420;-66
2022/03/20 03:55:24;;;;;;;26.07;10.07;;;1.60;99.90;;;;;;5034457;28;20425;-66
2022/03/20 03:57:51;;;;;;;20.83;9.93;;;1.50;99.80;;;;;;5042850;28;20662;-66
2022/03/20 04:00:19;;;;;;;18.50;10.00;;;1.40;99.60;;;;;;5044141;28;20669;-66
2022/03/20 04:02:45;;;;;;;20.27;10.70;;;1.40;99.70;;;;;;5025712;28;20531;-67
2022/03/20 04:05:11;;;;;;;25.10;10.20;;;1.40;99.70;;;;;;5043177;28;20460;-68
2022/03/20 04:07:37;;;;;;;19.93;9.47;;;1.40;99.60;;;;;;5044555;28;20436;-66
2022/03/20 04:10:06;;;;;;;20.80;10.30;;;1.40;99.80;;;;;;5040161;28;20202;-67
2022/03/20 04:12:36;;;;;;;25.90;10.97;;;1.40;99.70;;;;;;5040052;28;20166;-67
2022/03/20 04:15:05;;;;;;;23.67;10.30;;;1.40;99.70;;;;;;5038812;28;20455;-67
2022/03/20 04:17:32;;;;;;;19.60;10.13;;;1.40;99.80;;;;;;5040826;28;20424;-67
2022/03/20 04:19:58;;;;;;;23.40;10.80;;;1.40;99.90;;;;;;5039065;28;20480;-65
2022/03/20 04:22:26;;;;;;;22.37;10.57;;;1.50;99.90;;;;;;5042290;28;20416;-66
2022/03/20 04:24:53;;;;;;;17.43;9.40;;;1.50;99.40;;;;;;5039073;28;20904;-66
2022/03/20 04:27:19;;;;;;;20.10;10.70;;;1.60;98.90;;;;;;5039783;28;20812;-66
2022/03/20 04:29:45;;;;;;;20.30;9.87;;;1.60;98.80;;;;;;5031030;28;20806;-68
2022/03/20 04:32:11;;;;;;;19.00;9.83;;;1.70;98.00;;;;;;5033552;28;20496;-66
2022/03/20 04:34:38;;;;;;;23.23;9.53;;;1.80;98.20;;;;;;5035286;28;20421;-67
2022/03/20 04:37:05;;;;;;;21.67;9.67;;;1.80;97.60;;;;;;5034592;28;20440;-66
2022/03/20 04:39:32;;;;;;;16.30;8.90;;;2.00;97.30;;;;;;5033740;28;20440;-67
2022/03/20 04:41:58;;;;;;;23.80;10.73;;;2.00;96.40;;;;;;5033903;28;20416;-67
2022/03/20 04:44:23;;;;;;;35.80;10.27;;;2.10;95.60;;;;;;5032998;28;20773;-65
2022/03/20 04:46:49;;;;;;;16.87;9.00;;;2.20;95.80;;;;;;5037905;28;20252;-66
2022/03/20 04:58:29;;;;;;;18.13;8.77;;;2.30;97.00;;;;;;5045098;28;20391;-67
2022/03/20 05:00:23;;;;;;;22.73;9.80;;;2.40;96.20;;;;;;5041521;28;20475;-66
2022/03/20 05:02:49;;;;;;;21.90;10.60;;;2.50;96.10;;;;;;5043304;28;20420;-67
2022/03/20 05:05:16;;;;;;;22.23;9.80;;;2.50;95.80;;;;;;5040705;28;20225;-67
2022/03/20 05:07:42;;;;;;;21.60;10.53;;;2.50;96.40;;;;;;5042566;28;20189;-67
2022/03/20 05:15:37;;;;;;;23.33;9.50;;;2.50;96.40;;;;;;5041860;28;20977;-67
2022/03/20 05:18:12;;;;;;;29.73;10.73;;;2.60;95.90;;;;;;5032297;28;20416;-67
2022/03/20 05:20:38;;;;;;;22.33;10.67;;;2.70;95.80;;;;;;5033443;28;20202;-67
2022/03/20 05:23:04;;;;;;;25.90;10.50;;;2.70;95.30;;;;;;5039650;28;20425;-67
2022/03/20 05:25:30;;;;;;;23.07;9.47;;;2.70;95.60;;;;;;5043976;28;20263;-67
2022/03/20 05:27:56;;;;;;;23.77;10.43;;;2.80;95.40;;;;;;5039229;28;20417;-65
2022/03/20 05:30:22;;;;;;;22.77;10.97;;;2.80;95.40;;;;;;5034122;28;20225;-66
2022/03/20 05:32:48;;;;;;;27.23;11.70;;;2.80;95.50;;;;;;5036810;28;20877;-68
2022/03/20 05:35:16;;;;;;;21.50;11.17;;;2.80;95.90;;;;;;5035609;28;20182;-67
2022/03/20 05:37:42;;;;;;;22.17;10.70;;;2.80;96.20;;;;;;5035877;28;20491;-67
2022/03/20 05:40:09;;;;;;;24.17;10.63;;;2.80;96.40;;;;;;5035345;28;20433;-67
2022/03/20 05:42:36;;;;;;;23.00;10.93;;;2.80;96.50;;;;;;5046378;28;20459;-65
2022/03/20 05:45:03;;;;;;;30.43;11.53;;;2.80;96.50;;;;;;5047228;28;20551;-67
2022/03/20 05:47:32;;;;;;;23.20;11.60;;;2.80;96.50;;;;;;5045963;28;20435;-66
2022/03/20 05:50:01;;;;;;;29.13;11.57;;;2.80;96.60;;;;;;5045878;28;20492;-68
2022/03/20 05:52:29;;;;;;;33.27;11.43;;;2.80;96.80;;;;;;5044573;28;20510;-67
2022/03/20 05:54:55;;;;;;;28.70;11.80;;;2.80;96.80;;;;;;5044984;28;20494;-67
2022/03/20 06:00:06;;;;;;;22.30;10.47;;;2.90;96.80;;;;;;5041136;28;20575;-67
2022/03/20 06:02:31;;;;;;;31.80;12.60;;;2.90;96.60;;;;;;5044498;28;20471;-66
2022/03/20 06:04:57;;;;;;;22.70;11.17;;;3.00;96.70;;;;;;5041074;28;21099;-67
2022/03/20 06:07:22;;;;;;;33.20;11.13;;;3.00;96.90;;;;;;5043977;28;20174;-66
2022/03/20 06:09:48;;;;;;;38.03;12.87;;;3.00;97.00;;;;;;5036621;28;20207;-67
2022/03/20 06:12:14;;;;;;;23.10;10.50;;;3.10;96.90;;;;;;5038157;28;20264;-66
2022/03/20 06:14:39;;;;;;;23.37;11.23;;;3.10;96.60;;;;;;5037317;28;20675;-64
2022/03/20 06:17:09;;;;;;;23.30;11.60;;;3.10;96.30;;;;;;5038899;28;20197;-66
2022/03/20 06:19:36;;;;;;;26.63;11.77;;;3.10;96.30;;;;;;5038343;28;20201;-66
2022/03/20 06:22:02;;;;;;;32.73;14.07;;;3.10;96.40;;;;;;5039816;28;20767;-67
2022/03/20 06:24:28;;;;;;;25.50;12.27;;;3.20;96.30;;;;;;5038648;28;20480;-66
2022/03/20 06:26:53;;;;;;;23.07;11.90;;;3.20;96.20;;;;;;5037351;28;20206;-66
2022/03/20 06:29:19;;;;;;;28.63;12.47;;;3.20;96.20;;;;;;5031933;28;20261;-66
2022/03/20 06:31:48;;;;;;;25.40;11.57;;;3.20;96.30;;;;;;5031110;28;20200;-66
2022/03/20 06:34:14;;;;;;;23.13;11.87;;;3.30;96.50;;;;;;5034617;28;20182;-66
2022/03/20 06:36:40;;;;;;;24.50;11.33;;;3.30;96.60;;;;;;5043163;28;21187;-65
2022/03/20 06:39:05;;;;;;;32.60;13.40;;;3.50;96.50;;;;;;5027758;28;20486;-66
2022/03/20 06:41:31;;;;;;;26.63;12.00;;;3.60;96.00;;;;;;5040531;28;20289;-66
2022/03/20 06:43:57;;;;;;;29.07;12.43;;;3.70;95.80;;;;;;5044617;28;20662;-67
2022/03/20 06:46:22;;;;;;;27.83;12.03;;;3.80;95.70;;;;;;5044815;28;20198;-66
2022/03/20 06:48:48;;;;;;;26.93;11.70;;;3.90;95.30;;;;;;5041856;28;20183;-67
2022/03/20 06:51:17;;;;;;;20.67;11.40;;;4.10;94.90;;;;;;5040019;28;20241;-67
2022/03/20 06:53:42;;;;;;;34.93;12.60;;;4.20;94.60;;;;;;5044474;28;20261;-68
2022/03/20 06:56:08;;;;;;;19.67;10.60;;;4.20;94.40;;;;;;5040871;28;20492;-67
2022/03/20 06:58:35;;;;;;;24.30;12.27;;;4.30;93.90;;;;;;5039449;28;20698;-67
2022/03/20 07:01:01;;;;;;;24.70;11.90;;;4.30;94.30;;;;;;5041069;28;20447;-68
2022/03/20 07:03:26;;;;;;;26.10;13.03;;;4.50;94.40;;;;;;5042496;28;20417;-68
2022/03/20 07:05:52;;;;;;;32.27;13.40;;;4.70;94.50;;;;;;5044310;28;20233;-67
2022/03/20 07:08:18;;;;;;;23.17;11.40;;;4.80;94.20;;;;;;5039531;28;20185;-65
2022/03/20 07:10:43;;;;;;;19.10;10.93;;;5.10;93.80;;;;;;5037234;28;20204;-67
2022/03/20 07:15:59;;;;;;;23.37;11.93;;;5.30;93.60;;;;;;5030187;28;20819;-67
2022/03/20 07:18:25;;;;;;;23.03;11.43;;;5.60;92.90;;;;;;5033290;28;20950;-65
2022/03/20 07:20:51;;;;;;;22.70;10.73;;;5.70;92.90;;;;;;5039529;28;20444;-67
2022/03/20 07:23:17;;;;;;;23.70;10.90;;;5.80;93.60;;;;;;5034790;28;20425;-67
2022/03/20 07:31:14;;;;;;;27.17;12.00;;;6.20;92.50;;;;;;5044100;28;20443;-68
2022/03/20 07:33:40;;;;;;;19.17;10.67;;;6.70;91.80;;;;;;5045254;28;20428;-67
2022/03/20 07:36:06;;;;;;;24.07;11.97;;;7.50;91.00;;;;;;5041503;28;20420;-66
2022/03/20 07:38:35;;;;;;;24.97;11.23;;;8.20;87.60;;;;;;5043769;28;20431;-66
2022/03/20 07:41:00;;;;;;;23.13;10.93;;;8.50;87.10;;;;;;5041121;28;20420;-68
2022/03/20 07:43:26;;;;;;;25.47;12.00;;;9.60;83.60;;;;;;5044093;28;20438;-67
2022/03/20 07:45:53;;;;;;;29.07;11.03;;;9.70;80.00;;;;;;5040867;28;20206;-67
2022/03/20 07:48:21;;;;;;;20.90;10.60;;;9.60;82.00;;;;;;5037901;28;20177;-65
2022/03/20 07:50:47;;;;;;;19.37;10.50;;;9.90;81.80;;;;;;5036063;28;20805;-66
2022/03/20 07:53:13;;;;;;;22.67;10.20;;;10.80;77.30;;;;;;5024293;28;20451;-67
2022/03/20 07:55:39;;;;;;;24.70;11.73;;;11.00;76.30;;;;;;5038009;28;20460;-67
2022/03/20 07:58:05;;;;;;;23.50;10.43;;;10.20;76.30;;;;;;5041651;28;20289;-67
2022/03/20 08:00:30;;;;;;;18.60;10.00;;;10.10;78.10;;;;;;5035894;28;20261;-67
2022/03/20 08:02:56;;;;;;;26.03;11.97;;;10.10;79.30;;;;;;5040613;28;20882;-65
2022/03/20 08:05:24;;;;;;;22.20;10.60;;;10.40;78.40;;;;;;5033300;28;20198;-67
2022/03/20 08:07:50;;;;;;;22.60;11.33;;;10.90;76.50;;;;;;5039809;28;20974;-66
2022/03/20 08:10:16;;;;;;;27.73;13.50;;;11.30;75.30;;;;;;5027952;28;20429;-66
2022/03/20 08:12:41;;;;;;;22.00;9.97;;;11.20;74.80;;;;;;5033420;28;20264;-67
2022/03/20 08:15:07;;;;;;;22.20;10.73;;;11.80;73.40;;;;;;5028506;28;20182;-67
2022/03/20 08:17:45;;;;;;;31.07;11.30;;;12.40;72.40;;;;;;5036630;28;20189;-67
2022/03/20 08:20:11;;;;;;;20.10;9.70;;;12.80;71.50;;;;;;5043832;28;20201;-67
2022/03/20 08:22:37;;;;;;;33.20;11.33;;;13.10;70.60;;;;;;5044167;28;20935;-65
2022/03/20 08:25:04;;;;;;;27.30;10.97;;;13.70;68.00;;;;;;5044070;28;20480;-65
2022/03/20 08:27:30;;;;;;;20.60;10.40;;;13.60;67.00;;;;;;5041000;28;20181;-68
2022/03/20 08:29:57;;;;;;;19.17;10.13;;;14.00;66.70;;;;;;5036764;28;20433;-67
2022/03/20 08:32:24;;;;;;;23.90;10.73;;;13.90;67.00;;;;;;5038146;28;20209;-67
2022/03/20 08:34:50;;;;;;;29.73;10.47;;;13.20;66.60;;;;;;5042367;28;20412;-67
2022/03/20 08:37:16;;;;;;;20.90;10.50;;;13.60;67.00;;;;;;5038750;28;20468;-65
2022/03/20 08:39:41;;;;;;;26.90;11.30;;;13.00;64.90;;;;;;5038417;28;20944;-66
2022/03/20 08:42:07;;;;;;;22.73;10.87;;;12.40;67.00;;;;;;5040246;28;20466;-67
2022/03/20 08:44:33;;;;;;;18.27;10.73;;;12.20;67.50;;;;;;5042158;28;20178;-66
2022/03/20 08:46:58;;;;;;;23.70;10.87;;;12.00;68.40;;;;;;5040932;28;20206;-66
2022/03/20 08:49:24;;;;;;;22.10;9.97;;;11.90;68.40;;;;;;5040888;28;20198;-64
2022/03/20 08:51:50;;;;;;;23.20;9.97;;;12.00;68.00;;;;;;5043811;28;20185;-66
2022/03/20 08:54:15;;;;;;;27.60;10.00;;;11.90;67.80;;;;;;5042835;28;20186;-66
2022/03/20 08:56:41;;;;;;;18.97;9.60;;;11.80;68.20;;;;;;5044206;28;20243;-68
2022/03/20 08:59:07;;;;;;;27.03;11.50;;;11.70;68.80;;;;;;5040171;28;20708;-64
2022/03/20 09:01:33;;;;;;;20.60;9.70;;;11.50;68.00;;;;;;5043409;28;20562;-66
2022/03/20 09:03:59;;;;;;;31.43;12.00;;;11.30;69.10;;;;;;5040326;28;20230;-65
2022/03/20 09:06:25;;;;;;;26.80;11.33;;;11.00;69.80;;;;;;5043078;28;20239;-67
2022/03/20 09:08:51;;;;;;;22.90;12.10;;;11.00;70.60;;;;;;5037276;28;21255;-67
2022/03/20 09:11:18;;;;;;;20.20;10.10;;;11.30;71.60;;;;;;5036385;28;20190;-65
2022/03/20 09:13:43;;;;;;;20.97;10.13;;;11.80;70.20;;;;;;5037234;28;20439;-66
2022/03/20 09:19:00;;;;;;;25.70;10.40;;;11.40;69.30;;;;;;5038786;28;20224;-65
2022/03/20 09:21:27;;;;;;;20.20;10.00;;;10.90;70.80;;;;;;5038292;28;20482;-66
2022/03/20 09:23:52;;;;;;;23.10;10.93;;;10.50;71.50;;;;;;5039626;28;20507;-67
2022/03/20 09:26:18;;;;;;;30.97;10.70;;;10.40;71.90;;;;;;5038760;28;21313;-66
2022/03/20 09:28:45;;;;;;;17.33;8.77;;;10.10;74.00;;;;;;5030488;28;20182;-66
2022/03/20 09:31:11;;;;;;;21.23;10.03;;;9.80;76.10;;;;;;5042130;28;20807;-65
2022/03/20 09:33:37;;;;;;;18.97;9.30;;;9.70;75.00;;;;;;5042511;28;20413;-66
2022/03/20 09:36:03;;;;;;;29.03;11.67;;;9.80;77.10;;;;;;5041785;28;20186;-66
2022/03/20 09:38:29;;;;;;;19.23;10.67;;;9.80;77.50;;;;;;5045233;28;20760;-66
2022/03/20 09:40:56;;;;;;;32.10;12.10;;;9.70;77.60;;;;;;5037477;28;20262;-65
2022/03/20 09:43:22;;;;;;;25.37;9.90;;;9.50;77.90;;;;;;5032787;28;20472;-66
2022/03/20 09:45:52;;;;;;;21.83;9.80;;;9.50;77.90;;;;;;5020233;28;20461;-66
2022/03/20 09:48:18;;;;;;;22.83;11.00;;;9.50;78.40;;;;;;5036266;28;20253;-65
2022/03/20 09:50:47;;;;;;;18.43;10.80;;;9.50;78.20;;;;;;5029964;28;20830;-66
2022/03/20 09:53:13;;;;;;;22.83;9.90;;;9.40;79.80;;;;;;5034990;28;20517;-65
2022/03/20 09:55:38;;;;;;;24.63;10.67;;;9.60;80.40;;;;;;5036500;28;20865;-66
2022/03/20 09:58:04;;;;;;;19.30;9.23;;;9.80;79.10;;;;;;5034077;28;20725;-66
2022/03/20 10:00:30;;;;;;;27.80;11.63;;;9.90;78.30;;;;;;5021266;28;22092;-65
2022/03/20 10:02:56;;;;;;;26.40;10.57;;;9.90;79.20;;;;;;5022354;28;20185;-66
2022/03/20 10:05:25;;;;;;;22.23;10.53;;;10.10;78.30;;;;;;5029356;28;20458;-66
2022/03/20 10:07:52;;;;;;;21.33;10.47;;;10.50;76.30;;;;;;5029352;28;20214;-65
2022/03/20 10:10:25;;;;;;;26.30;10.43;;;10.60;75.80;;;;;;5035168;28;20480;-65
2022/03/20 10:12:57;;;;;;;21.80;10.03;;;10.80;76.30;;;;;;5035877;28;20416;-65
2022/03/20 10:15:34;;;;;;;24.40;10.70;;;10.90;77.80;;;;;;5040779;28;20432;-65
2022/03/20 10:18:08;;;;;;;24.03;10.93;;;11.00;76.80;;;;;;5022427;28;20432;-66
2022/03/20 10:20:36;;;;;;;23.10;11.07;;;11.30;76.60;;;;;;5028936;28;20466;-66
2022/03/20 10:23:03;;;;;;;21.57;11.13;;;11.60;77.30;;;;;;5034232;28;20522;-67
2022/03/20 10:25:29;;;;;;;25.40;10.10;;;11.90;76.60;;;;;;5035264;28;20452;-67
2022/03/20 10:28:00;;;;;;;21.97;10.20;;;12.10;75.20;;;;;;5030398;28;20776;-68
2022/03/20 10:30:26;;;;;;;24.10;10.50;;;12.30;75.10;;;;;;5018190;28;20463;-67
2022/03/20 10:32:51;;;;;;;22.67;10.77;;;12.60;73.50;;;;;;5009503;28;20468;-67
2022/03/20 10:35:17;;;;;;;36.77;11.17;;;12.60;74.20;;;;;;5030208;28;20644;-67
2022/03/20 10:37:50;;;;;;;26.37;9.93;;;12.70;73.60;;;;;;5034727;28;20183;-67
2022/03/20 10:40:25;;;;;;;21.80;9.83;;;13.10;73.20;;;;;;5029068;28;20451;-66
2022/03/20 10:43:09;;;;;;;23.90;10.07;;;13.50;71.50;;;;;;5026056;28;20466;-67
2022/03/20 10:46:00;;;;;;;23.80;9.73;;;13.50;71.20;;;;;;5026634;28;20464;-66
2022/03/20 10:48:41;;;;;;;17.77;8.17;;;13.70;71.50;;;;;;5031461;28;20467;-66
2022/03/20 10:51:08;;;;;;;18.13;7.80;;;13.70;70.30;;;;;;5035105;28;20429;-65
2022/03/20 10:53:35;;;;;;;17.10;8.30;;;13.90;70.70;;;;;;5033139;28;20425;-68
2022/03/20 10:56:09;;;;;;;17.63;9.07;;;14.20;70.90;;;;;;5026326;28;22160;-68
2022/03/20 10:58:39;;;;;;;18.03;7.80;;;14.20;67.80;;;;;;5026431;28;20542;-67
2022/03/20 11:01:07;;;;;;;18.30;7.93;;;14.20;68.00;;;;;;5041084;28;20502;-67
2022/03/20 11:03:36;;;;;;;20.63;8.60;;;14.40;67.60;;;;;;5028465;28;20839;-66
2022/03/20 11:06:06;;;;;;;13.57;7.23;;;14.40;68.20;;;;;;5032607;28;20461;-68
2022/03/20 11:08:31;;;;;;;18.40;8.07;;;14.40;67.80;;;;;;5028458;28;20471;-68
2022/03/20 11:11:00;;;;;;;13.50;6.90;;;14.40;68.70;;;;;;5026546;28;20481;-67
2022/03/20 11:13:27;;;;;;;14.77;6.63;;;14.50;67.40;;;;;;5027520;28;20269;-66
2022/03/20 11:15:56;;;;;;;24.37;6.87;;;14.70;67.30;;;;;;5028301;28;20464;-68
2022/03/20 11:18:25;;;;;;;15.80;5.20;;;14.80;69.00;;;;;;5023308;28;20618;-68
2022/03/20 11:20:53;;;;;;;12.50;5.90;;;15.00;67.80;;;;;;5030346;28;20451;-67
2022/03/20 11:23:24;;;;;;;11.50;5.30;;;15.10;67.30;;;;;;5030096;28;20450;-68
2022/03/20 11:25:52;;;;;;;11.80;5.97;;;15.00;66.20;;;;;;5013007;28;20852;-66
2022/03/20 11:28:20;;;;;;;15.93;5.00;;;15.30;65.20;;;;;;5030973;28;20425;-67
2022/03/20 11:30:46;;;;;;;12.07;5.07;;;15.50;63.20;;;;;;5031092;28;20893;-68
2022/03/20 11:33:13;;;;;;;12.13;4.23;;;15.50;63.20;;;;;;5033146;28;20464;-66
2022/03/20 11:35:39;;;;;;;15.53;6.20;;;15.50;63.20;;;;;;5018423;28;20523;-68
2022/03/20 11:38:24;;;;;;;4.80;3.10;;;15.40;63.20;;;;;;5035471;28;20942;-67
2022/03/20 11:41:23;;;;;;;12.03;4.60;;;15.50;61.30;;;;;;5022642;28;21796;-68
2022/03/20 11:44:20;;;;;;;12.20;4.87;;;15.50;62.90;;;;;;4991594;28;20635;-65
2022/03/20 11:47:27;;;;;;;10.70;4.13;;;15.70;62.20;;;;;;5033260;28;21035;-66
2022/03/20 11:50:13;;;;;;;9.90;4.30;;;15.90;62.10;;;;;;4919073;29;20457;-64
2022/03/20 11:52:44;;;;;;;7.80;3.83;;;16.10;60.60;;;;;;4935237;29;20648;-66
2022/03/20 11:55:48;;;;;;;18.03;3.60;;;16.00;60.00;;;;;;4999425;28;21170;-69
2022/03/20 11:58:16;;;;;;;10.33;3.90;;;16.00;58.50;;;;;;5029665;28;20532;-66
2022/03/20 12:00:44;;;;;;;6.40;3.20;;;16.40;58.30;;;;;;5026944;28;20987;-66
2022/03/20 12:03:13;;;;;;;6.80;3.70;;;16.70;58.30;;;;;;5030725;28;20448;-65
2022/03/20 12:05:41;;;;;;;14.17;4.60;;;16.70;55.40;;;;;;5022035;28;20560;-67
2022/03/20 12:08:31;;;;;;;7.40;3.77;;;16.70;56.10;;;;;;5040574;28;20437;-65
2022/03/20 12:11:36;;;;;;;12.13;4.60;;;16.90;56.40;;;;;;5038668;28;20446;-65
2022/03/20 12:14:20;;;;;;;11.30;5.20;;;16.90;56.80;;;;;;5034650;28;20424;-66
2022/03/20 12:16:50;;;;;;;9.60;4.77;;;16.50;55.40;;;;;;5029125;28;20544;-66
2022/03/20 12:19:17;;;;;;;10.40;5.30;;;16.30;56.90;;;;;;5026238;28;20619;-66
2022/03/20 12:21:59;;;;;;;13.67;5.17;;;16.10;57.40;;;;;;5031295;28;20531;-66
2022/03/20 12:24:54;;;;;;;16.63;6.60;;;16.00;57.60;;;;;;5033351;28;20495;-66
2022/03/20 12:27:22;;;;;;;12.80;6.30;;;15.70;58.10;;;;;;5032101;28;20472;-65
2022/03/20 12:30:26;;;;;;;12.20;5.00;;;15.50;58.90;;;;;;5023282;28;21266;-65
2022/03/20 12:32:52;;;;;;;11.83;5.40;;;15.60;59.10;;;;;;5022269;28;20435;-66
2022/03/20 12:35:27;;;;;;;20.00;6.27;;;15.90;60.60;;;;;;5026235;28;20441;-66
2022/03/20 12:37:55;;;;;;;11.57;4.97;;;16.10;58.50;;;;;;5032076;28;20188;-65
2022/03/20 12:40:31;;;;;;;13.23;4.97;;;16.20;59.10;;;;;;5028284;28;20928;-67
2022/03/20 12:43:10;;;;;;;8.67;4.60;;;16.50;57.60;;;;;;5033830;28;20419;-66
2022/03/20 12:45:38;;;;;;;14.77;5.00;;;17.00;56.80;;;;;;5032402;28;20472;-67
2022/03/20 12:48:10;;;;;;;17.87;5.50;;;17.20;56.80;;;;;;5030719;28;21769;-66
2022/03/20 12:50:37;;;;;;;16.67;6.30;;;17.10;57.40;;;;;;5030440;28;20865;-66
2022/03/20 12:53:14;;;;;;;14.33;5.77;;;17.20;55.50;;;;;;5032127;28;20987;-66
2022/03/20 12:55:40;;;;;;;11.00;4.77;;;16.90;55.80;;;;;;5031934;28;20435;-66
2022/03/20 12:58:08;;;;;;;16.77;6.10;;;16.80;57.00;;;;;;5037608;28;21099;-66
2022/03/20 13:00:36;;;;;;;13.40;5.37;;;16.80;56.50;;;;;;5042583;28;21270;-66
2022/03/20 13:03:03;;;;;;;12.00;4.30;;;16.80;54.60;;;;;;5032137;28;20859;-66
2022/03/20 13:05:34;;;;;;;23.53;6.50;;;16.70;55.40;;;;;;5033587;28;20480;-66
2022/03/20 13:08:00;;;;;;;16.80;5.30;;;16.80;55.90;;;;;;5038654;28;20927;-65
2022/03/20 13:10:32;;;;;;;9.73;5.03;;;16.90;56.50;;;;;;5036463;28;20447;-66
2022/03/20 13:13:01;;;;;;;11.20;5.03;;;16.90;55.70;;;;;;5031272;28;20257;-67